FMNM/MJN METAR and TAF weather

Enter ICAO airport designator
Station Type Date Time Source
FMNM METAR 2021/10/20 07:00 UTC NOAA

FMNM 200700Z 10009KT 020V180 9999 FEW020 33/17 Q1016 NOSIG


Station Type Date Time Source
FMNM Decoded METAR 2021/10/20 07:00 UTC NOAA

Majunga, Madagascar (FMNM) 15-40S 046-21E 18M
Oct 20, 2021 - 03:00 AM EDT / 2021.10.20 0700 UTC
Wind: from the E (100 degrees) at 10 MPH (9 KT) (direction variable):0
Visibility: greater than 7 mile(s):0
Sky conditions: mostly clear
Temperature: 91 F (33 C)
Dew Point: 62 F (17 C)
Relative Humidity: 38%
Pressure (altimeter): 30.00 in. Hg (1016 hPa)
ob: FMNM 200700Z 10009KT 020V180 9999 FEW020 33/17 Q1016 NOSIG
cycle: 7

Station Type Date Time Source
FMNM TAF 2021/10/20 06:04 UTC NOAA

TAF FMNM 200500Z 2006/2106 10006KT 9999 FEW023
BECMG 2006/2009 32013KT
BECMG 2018/2021 VRB03KT

Example: see airport list